Main page
METAR-TAF:

METAR-TAF

Airports :

George Best Belfast City Airport

Belfast City, Northern Ireland

latitude: 54-36N, longitude: 005-53W, elevation: 5 m

Current weather observation

The report was made 27 minutes ago, at 15:20 UTC
Wind 12 kt from the West/Northwest, varying between West and North
Temperature 13°C
Humidity 62%
Pressure 1029 hPa
Visibility 10 km or more

METAR: EGAC 211520Z AUTO 30012KT 270V350 9999 SCT042/// 13/06 Q1029

Time: 16:47 (15:47 UTC)

Forecast

The report was made 1 hour and 49 minutes ago, at 13:58 UTC
Forecast valid from 21 at 15 UTC to 21 at 21 UTC
Wind 10 kt from the West
Visibility 10 km or more
Few clouds at a height of 2200 ft
Scattered clouds at a height of 3500 ft

TAF: EGAC 211358Z 2115/2121 28010KT 9999 FEW022 SCT035

Weather observations and forecasts of more than 4000 airports (METAR and TAF reports).

The available stations are represented by yellow and red dots on the map.

Hover mouse over dot to see the name of the station.

Then click to see weather observations and forecasts.

To change the map : click on the green buttons with a black cross to zoom in, on the green button with a dash to zoom out, or on the green arrows for adjacent maps.


METAR-TAF: